sensor_id;sensor_type;location;lat;lon;timestamp;P1;durP1;ratioP1;P2;durP2;ratioP2
2011;SDS011;1009;51.436;6.972;2023-01-23T00:01:19;37.20;;;27.47;;
2011;SDS011;1009;51.436;6.972;2023-01-23T00:03:51;34.97;;;26.90;;
2011;SDS011;1009;51.436;6.972;2023-01-23T00:06:17;35.70;;;26.40;;
2011;SDS011;1009;51.436;6.972;2023-01-23T00:08:44;39.40;;;27.90;;
2011;SDS011;1009;51.436;6.972;2023-01-23T00:11:13;37.90;;;26.27;;
2011;SDS011;1009;51.436;6.972;2023-01-23T00:13:41;34.93;;;26.63;;
2011;SDS011;1009;51.436;6.972;2023-01-23T00:16:09;33.63;;;24.93;;
2011;SDS011;1009;51.436;6.972;2023-01-23T00:18:41;33.50;;;24.80;;
2011;SDS011;1009;51.436;6.972;2023-01-23T00:21:08;34.20;;;25.87;;
2011;SDS011;1009;51.436;6.972;2023-01-23T00:23:36;32.97;;;26.53;;
2011;SDS011;1009;51.436;6.972;2023-01-23T00:26:03;34.60;;;24.70;;
2011;SDS011;1009;51.436;6.972;2023-01-23T00:28:32;37.30;;;27.00;;
2011;SDS011;1009;51.436;6.972;2023-01-23T00:31:03;30.40;;;25.00;;
2011;SDS011;1009;51.436;6.972;2023-01-23T00:33:30;35.03;;;25.80;;
2011;SDS011;1009;51.436;6.972;2023-01-23T00:35:57;30.80;;;23.93;;
2011;SDS011;1009;51.436;6.972;2023-01-23T00:38:24;30.37;;;24.53;;
2011;SDS011;1009;51.436;6.972;2023-01-23T00:40:50;35.30;;;25.43;;
2011;SDS011;1009;51.436;6.972;2023-01-23T00:43:18;35.00;;;26.00;;
2011;SDS011;1009;51.436;6.972;2023-01-23T00:45:46;34.60;;;26.80;;
2011;SDS011;1009;51.436;6.972;2023-01-23T00:48:16;36.73;;;26.10;;
2011;SDS011;1009;51.436;6.972;2023-01-23T00:50:43;32.87;;;25.10;;
2011;SDS011;1009;51.436;6.972;2023-01-23T00:53:10;34.80;;;25.93;;
2011;SDS011;1009;51.436;6.972;2023-01-23T00:55:37;33.00;;;25.33;;
2011;SDS011;1009;51.436;6.972;2023-01-23T00:58:04;35.20;;;27.23;;
2011;SDS011;1009;51.436;6.972;2023-01-23T01:00:34;33.57;;;25.93;;
2011;SDS011;1009;51.436;6.972;2023-01-23T01:03:03;35.63;;;28.50;;
2011;SDS011;1009;51.436;6.972;2023-01-23T01:05:30;36.43;;;26.90;;
2011;SDS011;1009;51.436;6.972;2023-01-23T01:07:57;33.70;;;26.47;;
2011;SDS011;1009;51.436;6.972;2023-01-23T01:10:24;35.40;;;26.20;;
2011;SDS011;1009;51.436;6.972;2023-01-23T01:12:53;36.37;;;27.70;;
2011;SDS011;1009;51.436;6.972;2023-01-23T01:15:20;32.80;;;25.53;;
2011;SDS011;1009;51.436;6.972;2023-01-23T01:17:47;35.67;;;26.87;;
2011;SDS011;1009;51.436;6.972;2023-01-23T01:22:44;34.77;;;26.10;;
2011;SDS011;1009;51.436;6.972;2023-01-23T01:25:10;34.40;;;26.97;;
2011;SDS011;1009;51.436;6.972;2023-01-23T01:27:37;31.70;;;25.03;;
2011;SDS011;1009;51.436;6.972;2023-01-23T01:30:04;35.50;;;26.70;;
2011;SDS011;1009;51.436;6.972;2023-01-23T01:32:34;32.07;;;24.50;;
2011;SDS011;1009;51.436;6.972;2023-01-23T01:35:01;35.80;;;26.03;;
2011;SDS011;1009;51.436;6.972;2023-01-23T01:37:32;35.93;;;26.20;;
2011;SDS011;1009;51.436;6.972;2023-01-23T01:39:58;36.00;;;26.90;;
2011;SDS011;1009;51.436;6.972;2023-01-23T01:42:25;34.30;;;25.03;;
2011;SDS011;1009;51.436;6.972;2023-01-23T01:44:54;31.93;;;25.20;;
2011;SDS011;1009;51.436;6.972;2023-01-23T01:47:22;30.67;;;23.97;;
2011;SDS011;1009;51.436;6.972;2023-01-23T01:49:49;34.10;;;25.73;;
2011;SDS011;1009;51.436;6.972;2023-01-23T01:52:17;33.27;;;24.67;;
2011;SDS011;1009;51.436;6.972;2023-01-23T01:54:49;34.27;;;24.13;;
2011;SDS011;1009;51.436;6.972;2023-01-23T01:57:19;35.97;;;24.20;;
2011;SDS011;1009;51.436;6.972;2023-01-23T01:59:49;32.70;;;23.57;;
2011;SDS011;1009;51.436;6.972;2023-01-23T02:02:22;31.13;;;23.00;;
2011;SDS011;1009;51.436;6.972;2023-01-23T02:04:53;30.90;;;22.40;;
2011;SDS011;1009;51.436;6.972;2023-01-23T02:07:25;31.20;;;22.47;;
2011;SDS011;1009;51.436;6.972;2023-01-23T02:09:58;30.00;;;22.13;;
2011;SDS011;1009;51.436;6.972;2023-01-23T02:12:27;28.87;;;21.40;;
2011;SDS011;1009;51.436;6.972;2023-01-23T02:14:54;30.63;;;22.80;;
2011;SDS011;1009;51.436;6.972;2023-01-23T02:17:21;28.80;;;21.57;;
2011;SDS011;1009;51.436;6.972;2023-01-23T02:19:49;31.67;;;24.00;;
2011;SDS011;1009;51.436;6.972;2023-01-23T02:22:25;35.17;;;21.10;;
2011;SDS011;1009;51.436;6.972;2023-01-23T02:25:02;28.73;;;22.07;;
2011;SDS011;1009;51.436;6.972;2023-01-23T02:27:35;29.20;;;22.57;;
2011;SDS011;1009;51.436;6.972;2023-01-23T02:30:02;26.93;;;21.43;;
2011;SDS011;1009;51.436;6.972;2023-01-23T02:32:30;28.63;;;23.07;;
2011;SDS011;1009;51.436;6.972;2023-01-23T02:34:56;28.13;;;23.00;;
2011;SDS011;1009;51.436;6.972;2023-01-23T02:37:25;28.47;;;22.90;;
2011;SDS011;1009;51.436;6.972;2023-01-23T02:39:57;30.70;;;24.23;;
2011;SDS011;1009;51.436;6.972;2023-01-23T02:42:26;29.33;;;23.30;;
2011;SDS011;1009;51.436;6.972;2023-01-23T02:44:55;32.77;;;23.77;;
2011;SDS011;1009;51.436;6.972;2023-01-23T02:47:23;34.53;;;24.80;;
2011;SDS011;1009;51.436;6.972;2023-01-23T02:49:50;33.20;;;23.60;;
2011;SDS011;1009;51.436;6.972;2023-01-23T02:52:17;35.80;;;25.07;;
2011;SDS011;1009;51.436;6.972;2023-01-23T02:54:43;36.80;;;25.17;;
2011;SDS011;1009;51.436;6.972;2023-01-23T02:57:11;34.20;;;23.57;;
2011;SDS011;1009;51.436;6.972;2023-01-23T02:59:38;32.47;;;22.80;;
2011;SDS011;1009;51.436;6.972;2023-01-23T03:02:24;31.73;;;24.00;;
2011;SDS011;1009;51.436;6.972;2023-01-23T03:04:51;36.43;;;25.10;;
2011;SDS011;1009;51.436;6.972;2023-01-23T03:07:18;32.80;;;24.03;;
2011;SDS011;1009;51.436;6.972;2023-01-23T03:09:45;33.10;;;24.57;;
2011;SDS011;1009;51.436;6.972;2023-01-23T03:12:12;36.70;;;26.80;;
2011;SDS011;1009;51.436;6.972;2023-01-23T03:14:39;30.73;;;23.80;;
2011;SDS011;1009;51.436;6.972;2023-01-23T03:17:06;35.03;;;25.60;;
2011;SDS011;1009;51.436;6.972;2023-01-23T03:19:36;33.67;;;24.27;;
2011;SDS011;1009;51.436;6.972;2023-01-23T03:22:03;40.00;;;25.20;;
2011;SDS011;1009;51.436;6.972;2023-01-23T03:24:30;38.00;;;24.87;;
2011;SDS011;1009;51.436;6.972;2023-01-23T03:26:59;31.77;;;23.33;;
2011;SDS011;1009;51.436;6.972;2023-01-23T03:29:26;33.40;;;25.07;;
2011;SDS011;1009;51.436;6.972;2023-01-23T03:32:11;34.47;;;24.43;;
2011;SDS011;1009;51.436;6.972;2023-01-23T03:34:40;33.50;;;23.80;;
2011;SDS011;1009;51.436;6.972;2023-01-23T03:37:08;33.93;;;24.13;;
2011;SDS011;1009;51.436;6.972;2023-01-23T03:39:36;35.50;;;24.83;;
2011;SDS011;1009;51.436;6.972;2023-01-23T03:42:20;34.10;;;24.83;;
2011;SDS011;1009;51.436;6.972;2023-01-23T03:44:47;34.47;;;24.17;;
2011;SDS011;1009;51.436;6.972;2023-01-23T03:47:16;34.57;;;23.73;;
2011;SDS011;1009;51.436;6.972;2023-01-23T03:49:44;32.73;;;23.70;;
2011;SDS011;1009;51.436;6.972;2023-01-23T03:52:11;32.60;;;23.53;;
2011;SDS011;1009;51.436;6.972;2023-01-23T03:54:37;37.00;;;25.07;;
2011;SDS011;1009;51.436;6.972;2023-01-23T03:57:04;36.70;;;24.60;;
2011;SDS011;1009;51.436;6.972;2023-01-23T03:59:31;38.33;;;25.80;;
2011;SDS011;1009;51.436;6.972;2023-01-23T04:01:58;35.07;;;24.63;;
2011;SDS011;1009;51.436;6.972;2023-01-23T04:04:25;35.97;;;24.80;;
2011;SDS011;1009;51.436;6.972;2023-01-23T04:06:53;37.00;;;26.00;;
2011;SDS011;1009;51.436;6.972;2023-01-23T04:09:20;35.20;;;25.30;;
2011;SDS011;1009;51.436;6.972;2023-01-23T04:11:51;36.57;;;25.63;;
2011;SDS011;1009;51.436;6.972;2023-01-23T04:14:18;37.00;;;26.37;;
2011;SDS011;1009;51.436;6.972;2023-01-23T04:16:44;35.57;;;26.00;;
2011;SDS011;1009;51.436;6.972;2023-01-23T04:19:11;38.27;;;27.17;;
2011;SDS011;1009;51.436;6.972;2023-01-23T04:21:38;35.60;;;26.33;;
2011;SDS011;1009;51.436;6.972;2023-01-23T04:24:06;38.93;;;27.80;;
2011;SDS011;1009;51.436;6.972;2023-01-23T04:26:33;34.70;;;25.10;;
2011;SDS011;1009;51.436;6.972;2023-01-23T04:29:00;38.63;;;26.80;;
2011;SDS011;1009;51.436;6.972;2023-01-23T04:31:26;37.87;;;26.53;;
2011;SDS011;1009;51.436;6.972;2023-01-23T04:33:53;39.63;;;27.63;;
2011;SDS011;1009;51.436;6.972;2023-01-23T04:36:20;36.93;;;26.47;;
2011;SDS011;1009;51.436;6.972;2023-01-23T04:38:47;40.83;;;27.87;;
2011;SDS011;1009;51.436;6.972;2023-01-23T04:41:16;36.30;;;26.70;;
2011;SDS011;1009;51.436;6.972;2023-01-23T04:43:45;41.60;;;26.90;;
2011;SDS011;1009;51.436;6.972;2023-01-23T04:46:12;40.80;;;27.63;;
2011;SDS011;1009;51.436;6.972;2023-01-23T04:48:38;41.13;;;28.53;;
2011;SDS011;1009;51.436;6.972;2023-01-23T04:51:05;40.60;;;28.50;;
2011;SDS011;1009;51.436;6.972;2023-01-23T04:53:32;41.40;;;26.90;;
2011;SDS011;1009;51.436;6.972;2023-01-23T04:55:59;37.87;;;27.53;;
2011;SDS011;1009;51.436;6.972;2023-01-23T04:58:27;40.80;;;29.93;;
2011;SDS011;1009;51.436;6.972;2023-01-23T05:00:59;44.20;;;29.60;;
2011;SDS011;1009;51.436;6.972;2023-01-23T05:03:26;39.77;;;28.23;;
2011;SDS011;1009;51.436;6.972;2023-01-23T05:05:53;36.80;;;26.93;;
2011;SDS011;1009;51.436;6.972;2023-01-23T05:08:20;41.20;;;28.60;;
2011;SDS011;1009;51.436;6.972;2023-01-23T05:10:46;38.33;;;27.10;;
2011;SDS011;1009;51.436;6.972;2023-01-23T05:13:13;36.70;;;26.63;;
2011;SDS011;1009;51.436;6.972;2023-01-23T05:15:41;39.90;;;27.27;;
2011;SDS011;1009;51.436;6.972;2023-01-23T05:18:08;36.73;;;27.33;;
2011;SDS011;1009;51.436;6.972;2023-01-23T05:20:35;38.40;;;26.87;;
2011;SDS011;1009;51.436;6.972;2023-01-23T05:23:01;36.53;;;27.53;;
2011;SDS011;1009;51.436;6.972;2023-01-23T05:25:28;36.43;;;26.37;;
2011;SDS011;1009;51.436;6.972;2023-01-23T05:27:55;36.70;;;26.87;;
2011;SDS011;1009;51.436;6.972;2023-01-23T05:30:21;36.03;;;26.50;;
2011;SDS011;1009;51.436;6.972;2023-01-23T05:32:50;37.77;;;26.83;;
2011;SDS011;1009;51.436;6.972;2023-01-23T05:35:16;34.73;;;24.77;;
2011;SDS011;1009;51.436;6.972;2023-01-23T05:37:46;31.50;;;24.97;;
2011;SDS011;1009;51.436;6.972;2023-01-23T05:40:13;32.27;;;24.97;;
2011;SDS011;1009;51.436;6.972;2023-01-23T05:42:40;34.00;;;25.20;;
2011;SDS011;1009;51.436;6.972;2023-01-23T05:45:07;35.57;;;27.17;;
2011;SDS011;1009;51.436;6.972;2023-01-23T05:47:34;34.20;;;25.50;;
2011;SDS011;1009;51.436;6.972;2023-01-23T05:50:03;33.23;;;24.40;;
2011;SDS011;1009;51.436;6.972;2023-01-23T05:52:32;34.23;;;23.53;;
2011;SDS011;1009;51.436;6.972;2023-01-23T05:54:58;31.53;;;23.13;;
2011;SDS011;1009;51.436;6.972;2023-01-23T05:57:25;32.33;;;23.90;;
2011;SDS011;1009;51.436;6.972;2023-01-23T05:59:52;28.90;;;23.90;;
2011;SDS011;1009;51.436;6.972;2023-01-23T06:02:18;33.87;;;24.93;;
2011;SDS011;1009;51.436;6.972;2023-01-23T06:04:45;32.20;;;23.20;;
2011;SDS011;1009;51.436;6.972;2023-01-23T06:07:15;30.30;;;22.03;;
2011;SDS011;1009;51.436;6.972;2023-01-23T06:09:43;29.97;;;22.43;;
2011;SDS011;1009;51.436;6.972;2023-01-23T06:12:09;32.50;;;23.93;;
2011;SDS011;1009;51.436;6.972;2023-01-23T06:14:36;34.80;;;24.50;;
2011;SDS011;1009;51.436;6.972;2023-01-23T06:17:04;31.30;;;23.30;;
2011;SDS011;1009;51.436;6.972;2023-01-23T06:19:31;32.23;;;25.27;;
2011;SDS011;1009;51.436;6.972;2023-01-23T06:21:58;33.47;;;25.83;;
2011;SDS011;1009;51.436;6.972;2023-01-23T06:24:26;32.03;;;24.07;;
2011;SDS011;1009;51.436;6.972;2023-01-23T06:26:53;32.93;;;25.37;;
2011;SDS011;1009;51.436;6.972;2023-01-23T06:29:20;36.93;;;27.17;;
2011;SDS011;1009;51.436;6.972;2023-01-23T06:31:47;34.10;;;25.47;;
2011;SDS011;1009;51.436;6.972;2023-01-23T06:34:14;38.00;;;26.70;;
2011;SDS011;1009;51.436;6.972;2023-01-23T06:36:41;34.10;;;25.63;;
2011;SDS011;1009;51.436;6.972;2023-01-23T06:39:08;31.70;;;25.07;;
2011;SDS011;1009;51.436;6.972;2023-01-23T06:41:39;32.43;;;24.80;;
2011;SDS011;1009;51.436;6.972;2023-01-23T06:44:06;34.00;;;25.00;;
2011;SDS011;1009;51.436;6.972;2023-01-23T06:46:33;35.30;;;26.40;;
2011;SDS011;1009;51.436;6.972;2023-01-23T06:48:59;33.03;;;24.47;;
2011;SDS011;1009;51.436;6.972;2023-01-23T06:51:26;39.57;;;29.07;;
2011;SDS011;1009;51.436;6.972;2023-01-23T06:53:53;35.97;;;27.70;;
2011;SDS011;1009;51.436;6.972;2023-01-23T06:56:20;38.57;;;27.90;;
2011;SDS011;1009;51.436;6.972;2023-01-23T06:58:48;44.83;;;29.23;;
2011;SDS011;1009;51.436;6.972;2023-01-23T07:01:16;42.13;;;29.70;;
2011;SDS011;1009;51.436;6.972;2023-01-23T07:03:43;48.07;;;33.03;;
2011;SDS011;1009;51.436;6.972;2023-01-23T07:06:10;51.30;;;31.97;;
2011;SDS011;1009;51.436;6.972;2023-01-23T07:08:37;48.30;;;31.87;;
2011;SDS011;1009;51.436;6.972;2023-01-23T07:11:05;49.97;;;32.17;;
2011;SDS011;1009;51.436;6.972;2023-01-23T07:13:32;54.47;;;34.30;;
2011;SDS011;1009;51.436;6.972;2023-01-23T07:16:00;48.87;;;33.17;;
2011;SDS011;1009;51.436;6.972;2023-01-23T07:18:27;57.20;;;34.60;;
2011;SDS011;1009;51.436;6.972;2023-01-23T07:20:54;50.07;;;32.40;;
2011;SDS011;1009;51.436;6.972;2023-01-23T07:23:21;52.23;;;30.97;;
2011;SDS011;1009;51.436;6.972;2023-01-23T07:25:48;50.00;;;32.30;;
2011;SDS011;1009;51.436;6.972;2023-01-23T07:28:14;43.77;;;29.60;;
2011;SDS011;1009;51.436;6.972;2023-01-23T07:30:41;43.00;;;29.40;;
2011;SDS011;1009;51.436;6.972;2023-01-23T07:33:09;46.17;;;28.90;;
2011;SDS011;1009;51.436;6.972;2023-01-23T07:35:37;43.57;;;28.73;;
2011;SDS011;1009;51.436;6.972;2023-01-23T07:38:04;43.57;;;27.47;;
2011;SDS011;1009;51.436;6.972;2023-01-23T07:40:30;39.57;;;27.37;;
2011;SDS011;1009;51.436;6.972;2023-01-23T07:42:57;48.17;;;29.03;;
2011;SDS011;1009;51.436;6.972;2023-01-23T07:45:24;42.90;;;27.37;;
2011;SDS011;1009;51.436;6.972;2023-01-23T07:47:50;43.80;;;28.87;;
2011;SDS011;1009;51.436;6.972;2023-01-23T07:50:18;41.93;;;29.17;;
2011;SDS011;1009;51.436;6.972;2023-01-23T07:52:45;42.13;;;28.27;;
2011;SDS011;1009;51.436;6.972;2023-01-23T07:55:12;41.90;;;28.07;;
2011;SDS011;1009;51.436;6.972;2023-01-23T07:57:39;41.80;;;29.00;;
2011;SDS011;1009;51.436;6.972;2023-01-23T08:00:07;43.47;;;28.87;;
2011;SDS011;1009;51.436;6.972;2023-01-23T08:02:35;38.30;;;26.80;;
2011;SDS011;1009;51.436;6.972;2023-01-23T08:05:02;40.70;;;27.40;;
2011;SDS011;1009;51.436;6.972;2023-01-23T08:07:31;44.00;;;28.80;;
2011;SDS011;1009;51.436;6.972;2023-01-23T08:09:58;42.27;;;28.30;;
2011;SDS011;1009;51.436;6.972;2023-01-23T08:12:25;41.63;;;27.63;;
2011;SDS011;1009;51.436;6.972;2023-01-23T08:14:51;42.37;;;29.00;;
2011;SDS011;1009;51.436;6.972;2023-01-23T08:17:18;40.30;;;28.33;;
2011;SDS011;1009;51.436;6.972;2023-01-23T08:19:45;42.03;;;27.20;;
2011;SDS011;1009;51.436;6.972;2023-01-23T08:22:11;39.43;;;28.33;;
2011;SDS011;1009;51.436;6.972;2023-01-23T08:24:39;38.70;;;28.03;;
2011;SDS011;1009;51.436;6.972;2023-01-23T08:27:06;38.37;;;27.37;;
2011;SDS011;1009;51.436;6.972;2023-01-23T08:29:33;39.73;;;28.37;;
2011;SDS011;1009;51.436;6.972;2023-01-23T08:31:59;42.27;;;27.47;;
2011;SDS011;1009;51.436;6.972;2023-01-23T08:34:26;40.40;;;26.87;;
2011;SDS011;1009;51.436;6.972;2023-01-23T08:36:53;44.30;;;28.07;;
2011;SDS011;1009;51.436;6.972;2023-01-23T08:39:19;40.17;;;27.97;;
2011;SDS011;1009;51.436;6.972;2023-01-23T08:41:48;42.03;;;27.57;;
2011;SDS011;1009;51.436;6.972;2023-01-23T08:44:15;43.83;;;29.07;;
2011;SDS011;1009;51.436;6.972;2023-01-23T08:46:42;42.73;;;29.60;;
2011;SDS011;1009;51.436;6.972;2023-01-23T08:49:10;39.43;;;27.40;;
2011;SDS011;1009;51.436;6.972;2023-01-23T08:51:37;41.73;;;28.40;;
2011;SDS011;1009;51.436;6.972;2023-01-23T08:54:04;41.03;;;28.90;;
2011;SDS011;1009;51.436;6.972;2023-01-23T08:56:31;42.20;;;28.57;;
2011;SDS011;1009;51.436;6.972;2023-01-23T08:58:59;39.87;;;28.60;;
2011;SDS011;1009;51.436;6.972;2023-01-23T09:01:26;36.93;;;27.87;;
2011;SDS011;1009;51.436;6.972;2023-01-23T09:03:52;39.63;;;28.07;;
2011;SDS011;1009;51.436;6.972;2023-01-23T09:06:20;36.47;;;26.40;;
2011;SDS011;1009;51.436;6.972;2023-01-23T09:08:47;44.00;;;28.33;;
2011;SDS011;1009;51.436;6.972;2023-01-23T09:11:15;34.00;;;25.07;;
2011;SDS011;1009;51.436;6.972;2023-01-23T09:13:43;32.80;;;25.03;;
2011;SDS011;1009;51.436;6.972;2023-01-23T09:16:12;33.50;;;23.13;;
2011;SDS011;1009;51.436;6.972;2023-01-23T09:18:39;32.07;;;22.70;;
2011;SDS011;1009;51.436;6.972;2023-01-23T09:21:05;31.37;;;23.03;;
2011;SDS011;1009;51.436;6.972;2023-01-23T09:23:34;28.40;;;22.00;;
2011;SDS011;1009;51.436;6.972;2023-01-23T09:26:01;31.33;;;22.30;;
2011;SDS011;1009;51.436;6.972;2023-01-23T09:28:28;30.80;;;21.83;;
2011;SDS011;1009;51.436;6.972;2023-01-23T09:30:55;32.63;;;23.00;;
2011;SDS011;1009;51.436;6.972;2023-01-23T09:33:23;27.80;;;21.80;;
2011;SDS011;1009;51.436;6.972;2023-01-23T09:35:51;27.43;;;20.90;;
2011;SDS011;1009;51.436;6.972;2023-01-23T09:38:18;28.40;;;20.87;;
2011;SDS011;1009;51.436;6.972;2023-01-23T09:40:47;26.97;;;20.57;;
2011;SDS011;1009;51.436;6.972;2023-01-23T09:43:16;24.20;;;19.63;;
2011;SDS011;1009;51.436;6.972;2023-01-23T09:45:49;24.83;;;18.80;;
2011;SDS011;1009;51.436;6.972;2023-01-23T09:48:26;24.20;;;18.17;;
2011;SDS011;1009;51.436;6.972;2023-01-23T09:50:57;22.70;;;18.23;;
2011;SDS011;1009;51.436;6.972;2023-01-23T09:53:30;22.27;;;17.60;;
2011;SDS011;1009;51.436;6.972;2023-01-23T09:56:02;23.50;;;18.03;;
2011;SDS011;1009;51.436;6.972;2023-01-23T09:58:40;21.43;;;16.73;;
2011;SDS011;1009;51.436;6.972;2023-01-23T10:01:12;20.83;;;16.07;;
2011;SDS011;1009;51.436;6.972;2023-01-23T10:03:40;20.37;;;16.90;;
2011;SDS011;1009;51.436;6.972;2023-01-23T10:06:12;21.23;;;16.27;;
2011;SDS011;1009;51.436;6.972;2023-01-23T10:08:49;21.30;;;16.70;;
2011;SDS011;1009;51.436;6.972;2023-01-23T10:11:32;19.40;;;15.93;;
2011;SDS011;1009;51.436;6.972;2023-01-23T10:14:15;19.07;;;16.27;;
2011;SDS011;1009;51.436;6.972;2023-01-23T10:17:05;22.67;;;17.20;;
2011;SDS011;1009;51.436;6.972;2023-01-23T10:19:42;19.77;;;16.40;;
2011;SDS011;1009;51.436;6.972;2023-01-23T10:22:23;19.10;;;16.03;;
2011;SDS011;1009;51.436;6.972;2023-01-23T10:24:58;18.00;;;15.20;;
2011;SDS011;1009;51.436;6.972;2023-01-23T10:27:30;19.87;;;15.53;;
2011;SDS011;1009;51.436;6.972;2023-01-23T10:30:00;19.57;;;15.20;;
2011;SDS011;1009;51.436;6.972;2023-01-23T10:32:31;19.10;;;15.17;;
2011;SDS011;1009;51.436;6.972;2023-01-23T10:35:05;17.27;;;14.70;;
2011;SDS011;1009;51.436;6.972;2023-01-23T10:37:40;18.97;;;15.23;;
2011;SDS011;1009;51.436;6.972;2023-01-23T10:40:11;17.23;;;14.93;;
2011;SDS011;1009;51.436;6.972;2023-01-23T10:42:39;20.83;;;15.77;;
2011;SDS011;1009;51.436;6.972;2023-01-23T10:45:09;18.50;;;15.10;;
2011;SDS011;1009;51.436;6.972;2023-01-23T10:47:43;17.37;;;14.77;;
2011;SDS011;1009;51.436;6.972;2023-01-23T10:50:12;21.27;;;13.90;;
2011;SDS011;1009;51.436;6.972;2023-01-23T10:52:40;18.80;;;14.63;;
2011;SDS011;1009;51.436;6.972;2023-01-23T10:55:24;18.27;;;15.73;;
2011;SDS011;1009;51.436;6.972;2023-01-23T10:57:54;17.43;;;15.40;;
2011;SDS011;1009;51.436;6.972;2023-01-23T11:00:28;18.63;;;14.03;;
2011;SDS011;1009;51.436;6.972;2023-01-23T11:05:59;19.70;;;16.07;;
2011;SDS011;1009;51.436;6.972;2023-01-23T11:08:28;19.47;;;15.90;;
2011;SDS011;1009;51.436;6.972;2023-01-23T11:11:10;19.27;;;15.60;;
2011;SDS011;1009;51.436;6.972;2023-01-23T11:13:47;17.40;;;14.30;;
2011;SDS011;1009;51.436;6.972;2023-01-23T11:16:15;16.83;;;14.20;;
2011;SDS011;1009;51.436;6.972;2023-01-23T11:18:46;16.93;;;14.20;;
2011;SDS011;1009;51.436;6.972;2023-01-23T11:21:20;16.00;;;13.60;;
2011;SDS011;1009;51.436;6.972;2023-01-23T11:23:48;17.00;;;14.10;;
2011;SDS011;1009;51.436;6.972;2023-01-23T11:26:32;18.10;;;14.60;;
2011;SDS011;1009;51.436;6.972;2023-01-23T11:29:00;15.70;;;13.90;;
2011;SDS011;1009;51.436;6.972;2023-01-23T11:31:27;14.90;;;12.60;;
2011;SDS011;1009;51.436;6.972;2023-01-23T11:33:56;13.73;;;12.23;;
2011;SDS011;1009;51.436;6.972;2023-01-23T11:36:30;15.80;;;12.60;;
2011;SDS011;1009;51.436;6.972;2023-01-23T11:39:04;14.53;;;12.00;;
2011;SDS011;1009;51.436;6.972;2023-01-23T11:41:41;15.23;;;12.00;;
2011;SDS011;1009;51.436;6.972;2023-01-23T11:44:12;15.07;;;12.43;;
2011;SDS011;1009;51.436;6.972;2023-01-23T11:46:46;13.23;;;11.83;;
2011;SDS011;1009;51.436;6.972;2023-01-23T11:49:24;12.83;;;10.90;;
2011;SDS011;1009;51.436;6.972;2023-01-23T11:52:09;13.10;;;11.70;;
2011;SDS011;1009;51.436;6.972;2023-01-23T11:54:56;13.83;;;11.30;;
2011;SDS011;1009;51.436;6.972;2023-01-23T11:57:36;11.63;;;10.30;;
2011;SDS011;1009;51.436;6.972;2023-01-23T12:00:15;12.80;;;10.70;;
2011;SDS011;1009;51.436;6.972;2023-01-23T12:08:34;12.97;;;11.57;;
2011;SDS011;1009;51.436;6.972;2023-01-23T12:11:08;12.03;;;10.73;;
2011;SDS011;1009;51.436;6.972;2023-01-23T12:13:57;11.97;;;10.67;;
2011;SDS011;1009;51.436;6.972;2023-01-23T12:16:33;14.20;;;12.07;;
2011;SDS011;1009;51.436;6.972;2023-01-23T12:19:15;14.20;;;11.60;;
2011;SDS011;1009;51.436;6.972;2023-01-23T12:21:52;13.03;;;11.60;;
2011;SDS011;1009;51.436;6.972;2023-01-23T12:24:30;13.17;;;11.40;;
2011;SDS011;1009;51.436;6.972;2023-01-23T12:27:11;14.50;;;11.53;;
2011;SDS011;1009;51.436;6.972;2023-01-23T12:29:56;13.90;;;10.73;;
2011;SDS011;1009;51.436;6.972;2023-01-23T12:32:34;15.70;;;12.67;;
2011;SDS011;1009;51.436;6.972;2023-01-23T12:35:19;15.47;;;12.40;;
2011;SDS011;1009;51.436;6.972;2023-01-23T12:40:54;15.77;;;14.00;;
2011;SDS011;1009;51.436;6.972;2023-01-23T12:43:30;17.43;;;13.90;;
2011;SDS011;1009;51.436;6.972;2023-01-23T12:46:02;15.27;;;13.60;;
2011;SDS011;1009;51.436;6.972;2023-01-23T12:48:34;15.03;;;13.43;;
2011;SDS011;1009;51.436;6.972;2023-01-23T12:51:05;18.07;;;14.27;;
2011;SDS011;1009;51.436;6.972;2023-01-23T12:53:37;15.70;;;13.07;;
2011;SDS011;1009;51.436;6.972;2023-01-23T12:56:08;18.47;;;15.27;;
2011;SDS011;1009;51.436;6.972;2023-01-23T12:58:39;17.17;;;13.90;;
2011;SDS011;1009;51.436;6.972;2023-01-23T13:01:22;18.80;;;14.70;;
2011;SDS011;1009;51.436;6.972;2023-01-23T13:04:11;17.37;;;14.80;;
2011;SDS011;1009;51.436;6.972;2023-01-23T13:09:45;17.00;;;14.73;;
2011;SDS011;1009;51.436;6.972;2023-01-23T13:12:21;16.47;;;14.60;;
2011;SDS011;1009;51.436;6.972;2023-01-23T13:14:50;17.03;;;15.20;;
2011;SDS011;1009;51.436;6.972;2023-01-23T13:17:27;16.53;;;14.53;;
2011;SDS011;1009;51.436;6.972;2023-01-23T13:20:08;16.07;;;13.50;;
2011;SDS011;1009;51.436;6.972;2023-01-23T13:23:22;15.83;;;14.13;;
2011;SDS011;1009;51.436;6.972;2023-01-23T13:28:52;18.17;;;14.50;;
2011;SDS011;1009;51.436;6.972;2023-01-23T13:31:22;15.13;;;13.37;;
2011;SDS011;1009;51.436;6.972;2023-01-23T13:33:52;18.70;;;14.67;;
2011;SDS011;1009;51.436;6.972;2023-01-23T13:36:23;17.00;;;13.63;;
2011;SDS011;1009;51.436;6.972;2023-01-23T13:38:59;15.27;;;13.30;;
2011;SDS011;1009;51.436;6.972;2023-01-23T13:41:28;13.80;;;12.03;;
2011;SDS011;1009;51.436;6.972;2023-01-23T13:44:02;16.00;;;13.20;;
2011;SDS011;1009;51.436;6.972;2023-01-23T13:46:40;15.00;;;12.70;;
2011;SDS011;1009;51.436;6.972;2023-01-23T13:49:19;15.00;;;13.40;;
2011;SDS011;1009;51.436;6.972;2023-01-23T13:52:08;15.50;;;12.73;;
2011;SDS011;1009;51.436;6.972;2023-01-23T13:54:50;16.00;;;13.20;;
2011;SDS011;1009;51.436;6.972;2023-01-23T13:57:38;17.90;;;14.60;;
2011;SDS011;1009;51.436;6.972;2023-01-23T14:00:10;18.80;;;15.00;;
2011;SDS011;1009;51.436;6.972;2023-01-23T14:02:52;17.87;;;14.47;;
2011;SDS011;1009;51.436;6.972;2023-01-23T14:05:39;15.97;;;13.27;;
2011;SDS011;1009;51.436;6.972;2023-01-23T14:08:14;16.70;;;13.60;;
2011;SDS011;1009;51.436;6.972;2023-01-23T14:10:44;17.07;;;13.73;;
2011;SDS011;1009;51.436;6.972;2023-01-23T14:13:14;16.90;;;13.70;;
2011;SDS011;1009;51.436;6.972;2023-01-23T14:15:46;17.20;;;14.83;;
2011;SDS011;1009;51.436;6.972;2023-01-23T14:18:33;16.20;;;13.70;;
2011;SDS011;1009;51.436;6.972;2023-01-23T14:21:03;14.20;;;12.70;;
2011;SDS011;1009;51.436;6.972;2023-01-23T14:23:33;17.60;;;13.60;;
2011;SDS011;1009;51.436;6.972;2023-01-23T14:26:02;14.93;;;11.73;;
2011;SDS011;1009;51.436;6.972;2023-01-23T14:28:30;15.23;;;12.33;;
2011;SDS011;1009;51.436;6.972;2023-01-23T14:31:00;16.70;;;12.73;;
2011;SDS011;1009;51.436;6.972;2023-01-23T14:33:28;15.43;;;13.20;;
2011;SDS011;1009;51.436;6.972;2023-01-23T14:36:05;16.60;;;13.40;;
2011;SDS011;1009;51.436;6.972;2023-01-23T14:38:37;15.30;;;13.30;;
2011;SDS011;1009;51.436;6.972;2023-01-23T14:41:04;17.23;;;14.97;;
2011;SDS011;1009;51.436;6.972;2023-01-23T14:43:32;17.43;;;15.33;;
2011;SDS011;1009;51.436;6.972;2023-01-23T14:46:03;21.50;;;16.67;;
2011;SDS011;1009;51.436;6.972;2023-01-23T14:48:34;19.43;;;15.90;;
2011;SDS011;1009;51.436;6.972;2023-01-23T14:51:04;15.17;;;13.30;;
2011;SDS011;1009;51.436;6.972;2023-01-23T14:53:37;13.17;;;11.87;;
2011;SDS011;1009;51.436;6.972;2023-01-23T14:56:05;13.03;;;11.77;;
2011;SDS011;1009;51.436;6.972;2023-01-23T14:58:34;13.77;;;12.27;;
2011;SDS011;1009;51.436;6.972;2023-01-23T15:01:04;12.93;;;11.50;;
2011;SDS011;1009;51.436;6.972;2023-01-23T15:03:37;14.67;;;10.97;;
2011;SDS011;1009;51.436;6.972;2023-01-23T15:06:08;13.03;;;11.73;;
2011;SDS011;1009;51.436;6.972;2023-01-23T15:08:38;14.77;;;12.60;;
2011;SDS011;1009;51.436;6.972;2023-01-23T15:11:05;13.40;;;12.00;;
2011;SDS011;1009;51.436;6.972;2023-01-23T15:13:39;11.90;;;10.70;;
2011;SDS011;1009;51.436;6.972;2023-01-23T15:16:11;12.40;;;10.50;;
2011;SDS011;1009;51.436;6.972;2023-01-23T15:18:56;13.13;;;11.80;;
2011;SDS011;1009;51.436;6.972;2023-01-23T15:21:27;13.57;;;12.17;;
2011;SDS011;1009;51.436;6.972;2023-01-23T15:24:03;11.97;;;10.80;;
2011;SDS011;1009;51.436;6.972;2023-01-23T15:26:56;12.77;;;11.43;;